createdAt,value
2023-05-23T00:00:11.761Z,68.79
2023-05-23T00:04:13.196Z,69.40
2023-05-23T00:08:14.712Z,68.43
2023-05-23T00:12:17.579Z,69.07
2023-05-23T00:16:19.089Z,69.47
2023-05-23T00:20:20.552Z,69.32
2023-05-23T00:24:22.231Z,69.42
2023-05-23T00:28:25.025Z,69.82
2023-05-23T00:32:26.457Z,69.58
2023-05-23T00:36:27.865Z,69.28
2023-05-23T00:40:29.606Z,69.52
2023-05-23T00:44:32.475Z,70.21
2023-05-23T00:48:34.040Z,70.33
2023-05-23T00:52:36.388Z,70.35
2023-05-23T00:56:38.577Z,70.12
2023-05-23T01:00:42.770Z,70.00
2023-05-23T01:04:44.503Z,70.49
2023-05-23T01:08:45.919Z,70.06
2023-05-23T01:12:56.063Z,70.16
2023-05-23T01:17:04.682Z,69.67
2023-05-23T01:21:09.495Z,69.84
2023-05-23T01:25:23.369Z,70.53
2023-05-23T01:29:29.542Z,70.74
2023-05-23T01:33:32.474Z,71.05
2023-05-23T01:37:33.923Z,70.89
2023-05-23T01:41:35.543Z,70.06
2023-05-23T01:45:39.458Z,70.26
2023-05-23T01:49:41.972Z,71.17
2023-05-23T01:53:43.916Z,70.40
2023-05-23T01:57:47.614Z,67.95
2023-05-23T02:01:50.456Z,66.83
2023-05-23T02:05:51.867Z,66.06
2023-05-23T02:09:53.425Z,65.16
2023-05-23T02:13:54.866Z,65.22
2023-05-23T02:17:57.710Z,65.32
2023-05-23T02:21:59.192Z,64.96
2023-05-23T02:26:00.605Z,64.93
2023-05-23T02:30:02.038Z,65.06
2023-05-23T02:34:04.785Z,64.56
2023-05-23T02:38:06.219Z,65.00
2023-05-23T02:42:07.772Z,65.88
2023-05-23T02:46:09.468Z,65.35
2023-05-23T02:50:12.676Z,65.30
2023-05-23T02:54:14.461Z,67.29
2023-05-23T02:58:15.911Z,67.45
2023-05-23T03:02:17.363Z,66.93
2023-05-23T03:06:20.177Z,67.56
2023-05-23T03:10:21.586Z,68.45
2023-05-23T03:14:23.008Z,67.06
2023-05-23T03:18:24.467Z,68.66
2023-05-23T03:22:27.206Z,67.34
2023-05-23T03:26:28.675Z,67.88
2023-05-23T03:30:30.056Z,68.93
2023-05-23T03:34:31.441Z,69.49
2023-05-23T03:38:34.352Z,71.22
2023-05-23T03:42:36.687Z,71.62
2023-05-23T03:46:39.750Z,71.34
2023-05-23T03:50:41.777Z,72.81
2023-05-23T03:54:44.486Z,72.15
2023-05-23T03:58:45.879Z,72.42
2023-05-23T04:02:47.450Z,72.21
2023-05-23T04:06:48.932Z,71.48
2023-05-23T04:10:51.920Z,71.66
2023-05-23T04:14:53.324Z,70.89
2023-05-23T04:18:54.843Z,70.53
2023-05-23T04:22:56.312Z,71.48
2023-05-23T04:26:59.068Z,71.35
2023-05-23T04:31:00.567Z,70.14
2023-05-23T04:35:02.059Z,69.62
2023-05-23T04:39:04.062Z,69.97
2023-05-23T04:43:07.081Z,70.44
2023-05-23T04:47:08.816Z,70.23
2023-05-23T04:51:10.261Z,70.46
2023-05-23T04:55:11.803Z,70.76
2023-05-23T04:59:14.657Z,69.92
2023-05-23T05:03:16.062Z,69.21
2023-05-23T05:07:19.013Z,69.33
2023-05-23T05:11:20.436Z,69.71
2023-05-23T05:15:23.230Z,69.93
2023-05-23T05:19:24.740Z,69.23
2023-05-23T05:23:27.013Z,70.07
2023-05-23T05:27:28.413Z,69.35
2023-05-23T05:31:31.255Z,69.02
2023-05-23T05:35:33.537Z,68.77
2023-05-23T05:39:35.222Z,68.52
2023-05-23T05:43:36.726Z,68.90
2023-05-23T05:47:39.568Z,69.07
2023-05-23T05:51:41.076Z,70.24
2023-05-23T05:55:42.524Z,70.82
2023-05-23T05:59:43.985Z,71.09
2023-05-23T06:03:46.904Z,70.64
2023-05-23T06:07:49.275Z,70.09
2023-05-23T06:11:50.796Z,70.36
2023-05-23T06:15:52.300Z,69.57
2023-05-23T06:19:55.096Z,70.02
2023-05-23T06:23:56.724Z,69.84
2023-05-23T06:27:58.374Z,69.94
2023-05-23T06:31:59.908Z,70.35
2023-05-23T06:36:02.786Z,70.90
2023-05-23T06:40:05.182Z,70.22
2023-05-23T06:44:06.874Z,70.22
2023-05-23T06:48:08.313Z,70.19
2023-05-23T06:52:11.131Z,70.14
2023-05-23T06:56:12.563Z,69.90
2023-05-23T07:00:14.775Z,69.21
2023-05-23T07:04:16.235Z,68.19
2023-05-23T07:08:19.044Z,68.15
2023-05-23T07:12:20.531Z,68.06
2023-05-23T07:16:21.989Z,67.93
2023-05-23T07:20:23.462Z,68.10
2023-05-23T07:24:26.233Z,68.40
2023-05-23T07:28:27.751Z,68.44
2023-05-23T07:32:29.219Z,67.84
2023-05-23T07:36:34.077Z,67.09
2023-05-23T07:40:37.439Z,66.42
2023-05-23T07:44:38.891Z,65.59
2023-05-23T07:48:40.359Z,65.11
2023-05-23T07:52:41.824Z,64.77
2023-05-23T07:56:44.599Z,65.67
2023-05-23T08:00:46.086Z,64.29
2023-05-23T08:04:49.045Z,65.24
2023-05-23T08:08:50.894Z,65.68
2023-05-23T08:12:53.669Z,65.58
2023-05-23T08:16:55.207Z,66.39
2023-05-23T08:20:56.714Z,66.77
2023-05-23T08:24:58.144Z,66.85
2023-05-23T08:29:00.949Z,66.41
2023-05-23T08:33:02.648Z,67.36
2023-05-23T08:37:04.551Z,69.14
2023-05-23T08:41:19.898Z,68.83
2023-05-23T08:45:23.048Z,68.63
2023-05-23T08:49:25.292Z,69.26
2023-05-23T08:53:27.209Z,68.79
2023-05-23T08:57:28.673Z,69.38
2023-05-23T09:01:32.551Z,69.97
2023-05-23T09:05:34.136Z,69.49
2023-05-23T09:09:35.680Z,68.97
2023-05-23T09:13:37.114Z,70.36
2023-05-23T09:17:40.434Z,72.87
2023-05-23T09:21:43.524Z,74.75
2023-05-23T09:25:47.036Z,75.08
2023-05-23T09:29:49.083Z,74.46
2023-05-23T09:33:52.881Z,74.31
2023-05-23T09:37:54.340Z,74.42
2023-05-23T09:41:55.782Z,73.26
2023-05-23T09:46:01.040Z,74.00
2023-05-23T09:50:04.962Z,74.70
2023-05-23T09:54:06.493Z,74.36
2023-05-23T09:58:08.857Z,73.81
2023-05-23T10:02:12.452Z,71.95
2023-05-23T10:06:20.756Z,70.51
2023-05-23T10:10:22.834Z,66.59
2023-05-23T10:14:26.219Z,65.33
2023-05-23T10:18:30.711Z,66.31
2023-05-23T10:22:33.906Z,63.26
2023-05-23T10:26:36.404Z,57.30
2023-05-23T10:30:38.345Z,50.65
2023-05-23T10:34:45.669Z,47.77
2023-05-23T10:38:54.271Z,51.47
2023-05-23T10:43:01.660Z,53.68
2023-05-23T10:47:04.024Z,55.65
2023-05-23T10:51:06.937Z,54.05
2023-05-23T10:55:14.910Z,54.54
2023-05-23T10:59:20.764Z,53.70
2023-05-23T11:03:50.611Z,53.97
2023-05-23T11:08:10.792Z,55.40
2023-05-23T11:12:13.656Z,55.41
2023-05-23T11:16:24.657Z,56.68
2023-05-23T11:20:26.937Z,55.16
2023-05-23T11:24:48.829Z,54.23
2023-05-23T11:28:58.295Z,53.09
2023-05-23T11:32:59.840Z,50.76
2023-05-23T11:37:01.365Z,49.79
2023-05-23T11:41:03.019Z,46.75
2023-05-23T11:45:09.194Z,44.31
2023-05-23T11:49:11.549Z,44.70
2023-05-23T11:53:13.334Z,44.91
2023-05-23T11:57:14.810Z,47.01
2023-05-23T12:01:17.688Z,48.48
2023-05-23T12:05:19.196Z,47.05
2023-05-23T12:09:20.981Z,46.72
2023-05-23T12:13:24.771Z,46.61
2023-05-23T12:17:27.705Z,47.03
2023-05-23T12:21:41.478Z,47.49
2023-05-23T12:25:44.445Z,48.29
2023-05-23T12:29:51.000Z,51.48
2023-05-23T12:33:53.841Z,51.03
2023-05-23T12:37:56.546Z,50.70
2023-05-23T12:42:07.619Z,48.17
2023-05-23T12:46:09.324Z,46.83
2023-05-23T12:50:12.566Z,47.68
2023-05-23T12:54:13.979Z,46.98
2023-05-23T12:58:16.435Z,45.44
2023-05-23T13:02:17.964Z,43.93
2023-05-23T13:06:20.749Z,43.93
2023-05-23T13:10:22.207Z,43.17
2023-05-23T13:14:24.205Z,40.64
2023-05-23T13:18:26.041Z,40.47
2023-05-23T13:22:28.944Z,42.44
2023-05-23T13:26:30.372Z,41.50
2023-05-23T13:30:32.236Z,41.93
2023-05-23T13:34:33.769Z,40.98
2023-05-23T13:38:37.547Z,39.06
2023-05-23T13:42:39.408Z,38.81
2023-05-23T13:46:40.872Z,38.49
2023-05-23T13:50:43.474Z,39.00
2023-05-23T13:54:46.558Z,40.17
2023-05-23T13:58:48.040Z,38.18
2023-05-23T14:02:49.626Z,37.74
2023-05-23T14:06:51.156Z,36.75
2023-05-23T14:10:54.012Z,36.89
2023-05-23T14:14:55.656Z,36.22
2023-05-23T14:18:57.298Z,37.75
2023-05-23T14:22:58.764Z,37.95
2023-05-23T14:27:01.508Z,37.02
2023-05-23T14:31:03.326Z,39.12
2023-05-23T14:35:05.894Z,38.56
2023-05-23T14:39:08.461Z,38.87
2023-05-23T14:43:13.190Z,39.66
2023-05-23T14:47:14.820Z,39.08
2023-05-23T14:51:27.462Z,37.86
2023-05-23T14:55:36.441Z,39.23
2023-05-23T14:59:39.303Z,40.54
2023-05-23T15:03:40.940Z,39.81
2023-05-23T15:07:42.471Z,41.10
2023-05-23T15:11:44.443Z,41.49
2023-05-23T15:15:47.535Z,40.03
2023-05-23T15:19:48.997Z,40.16
2023-05-23T15:23:51.506Z,40.29
2023-05-23T15:27:53.022Z,40.21
2023-05-23T15:31:55.902Z,40.12
2023-05-23T15:35:57.368Z,40.88
2023-05-23T15:39:58.839Z,41.02
2023-05-23T15:44:00.324Z,40.60
2023-05-23T15:48:03.562Z,40.27
2023-05-23T15:52:05.421Z,40.16
2023-05-23T15:56:06.923Z,40.19
2023-05-23T16:00:09.832Z,40.57
2023-05-23T16:04:13.022Z,40.03
2023-05-23T16:08:14.551Z,38.90
2023-05-23T16:12:16.184Z,39.67
2023-05-23T16:16:17.653Z,40.25
2023-05-23T16:20:20.775Z,40.56
2023-05-23T16:24:22.226Z,40.61
2023-05-23T16:28:23.730Z,41.48
2023-05-23T16:32:25.164Z,40.62
2023-05-23T16:36:27.993Z,40.83
2023-05-23T16:40:29.431Z,41.36
2023-05-23T16:44:30.890Z,41.20
2023-05-23T16:48:32.360Z,41.77
2023-05-23T16:52:35.148Z,42.41
2023-05-23T16:56:36.665Z,40.99
2023-05-23T17:00:38.264Z,41.81
2023-05-23T17:04:40.027Z,41.66
2023-05-23T17:08:42.847Z,41.32
2023-05-23T17:12:44.306Z,42.44
2023-05-23T17:16:45.747Z,42.64
2023-05-23T17:20:47.169Z,42.72
2023-05-23T17:24:49.935Z,42.18
2023-05-23T17:28:51.445Z,42.69
2023-05-23T17:32:52.923Z,42.75
2023-05-23T17:36:54.374Z,42.41
2023-05-23T17:40:57.381Z,42.99
2023-05-23T17:44:58.781Z,43.19
2023-05-23T17:49:00.202Z,43.41
2023-05-23T17:53:04.069Z,43.60
2023-05-23T17:57:07.360Z,42.08
2023-05-23T18:01:08.903Z,42.90
2023-05-23T18:05:10.397Z,43.39
2023-05-23T18:09:11.835Z,43.38
2023-05-23T18:13:15.263Z,43.00
2023-05-23T18:17:16.778Z,43.00
2023-05-23T18:21:18.437Z,43.00
2023-05-23T18:25:19.997Z,43.65
2023-05-23T18:29:22.769Z,44.46
2023-05-23T18:33:24.375Z,44.21
2023-05-23T18:37:26.171Z,45.47
2023-05-23T18:41:27.682Z,46.46
2023-05-23T18:45:30.456Z,46.44
2023-05-23T18:49:31.941Z,45.68
2023-05-23T18:53:33.462Z,46.70
2023-05-23T18:57:34.938Z,45.98
2023-05-23T19:01:37.766Z,47.12
2023-05-23T19:05:39.227Z,47.19
2023-05-23T19:09:41.471Z,46.50
2023-05-23T19:13:42.876Z,47.90
2023-05-23T19:17:45.753Z,47.09
2023-05-23T19:21:47.213Z,47.05
2023-05-23T19:25:48.844Z,48.29
2023-05-23T19:29:50.313Z,47.05
2023-05-23T19:33:53.172Z,47.86
2023-05-23T19:37:54.597Z,48.92
2023-05-23T19:41:56.221Z,49.52
2023-05-23T19:45:57.711Z,48.66
2023-05-23T19:50:00.568Z,49.46
2023-05-23T19:54:02.117Z,48.94
2023-05-23T19:58:03.650Z,49.87
2023-05-23T20:02:05.217Z,49.25
2023-05-23T20:06:08.234Z,49.12
2023-05-23T20:10:10.159Z,50.08
2023-05-23T20:14:11.883Z,48.83
2023-05-23T20:18:13.367Z,49.52
2023-05-23T20:22:16.208Z,49.11
2023-05-23T20:26:17.718Z,48.95
2023-05-23T20:30:19.360Z,49.48
2023-05-23T20:34:20.859Z,49.51
2023-05-23T20:38:23.652Z,49.42
2023-05-23T20:42:25.092Z,49.58
2023-05-23T20:46:26.888Z,49.12
2023-05-23T20:50:28.408Z,49.77
2023-05-23T20:54:31.357Z,49.29
2023-05-23T20:58:32.797Z,49.63
2023-05-23T21:02:34.410Z,49.13
2023-05-23T21:06:36.214Z,50.00
2023-05-23T21:10:39.211Z,49.17
2023-05-23T21:14:40.745Z,49.73
2023-05-23T21:18:42.345Z,49.73
2023-05-23T21:22:43.996Z,49.44
2023-05-23T21:26:46.782Z,50.04
2023-05-23T21:30:48.495Z,50.51
2023-05-23T21:34:49.994Z,50.81
2023-05-23T21:38:51.552Z,51.15
2023-05-23T21:42:54.397Z,50.42
2023-05-23T21:46:55.883Z,50.74
2023-05-23T21:50:57.468Z,51.44
2023-05-23T21:54:58.871Z,50.41
2023-05-23T21:59:01.785Z,50.95
2023-05-23T22:03:03.387Z,51.27
2023-05-23T22:07:05.373Z,51.61
2023-05-23T22:11:06.884Z,51.57
2023-05-23T22:15:10.904Z,51.51
2023-05-23T22:19:12.656Z,52.14
2023-05-23T22:23:14.400Z,52.46
2023-05-23T22:27:15.817Z,52.33
2023-05-23T22:31:18.785Z,53.16
2023-05-23T22:35:20.524Z,52.40
2023-05-23T22:39:21.943Z,53.17
2023-05-23T22:43:23.407Z,52.97
2023-05-23T22:47:26.325Z,53.52
2023-05-23T22:51:27.819Z,53.63
2023-05-23T22:55:29.355Z,53.81
2023-05-23T22:59:30.807Z,53.90
2023-05-23T23:03:33.845Z,53.62
2023-05-23T23:07:35.350Z,54.83
2023-05-23T23:11:36.839Z,54.64
2023-05-23T23:15:38.346Z,55.03
2023-05-23T23:19:41.132Z,54.70
2023-05-23T23:23:42.589Z,55.22
2023-05-23T23:27:44.557Z,55.22
2023-05-23T23:31:46.052Z,55.17
2023-05-23T23:35:49.212Z,54.69
2023-05-23T23:39:50.774Z,55.37
2023-05-23T23:43:52.327Z,55.83
2023-05-23T23:47:54.200Z,55.69
2023-05-23T23:51:57.089Z,55.91
2023-05-23T23:55:58.698Z,56.32
